createdAt,value
2023-02-06T00:05:02.531Z,1.20
2023-02-06T00:08:15.593Z,1.10
2023-02-06T00:10:45.439Z,1.10
2023-02-06T00:13:12.242Z,1.30
2023-02-06T00:18:53.278Z,0.80
2023-02-06T00:21:22.098Z,0.70
2023-02-06T00:23:49.637Z,0.60
2023-02-06T00:26:16.528Z,0.70
2023-02-06T00:28:44.215Z,0.80
2023-02-06T00:31:11.272Z,2.00
2023-02-06T00:33:38.478Z,1.00
2023-02-06T00:36:06.150Z,0.60
2023-02-06T00:41:22.113Z,0.30
2023-02-06T00:44:00.168Z,0.40
2023-02-06T00:49:39.139Z,0.40
2023-02-06T00:52:06.337Z,0.70
2023-02-06T00:57:21.556Z,0.40
2023-02-06T01:02:24.681Z,0.50
2023-02-06T01:07:26.897Z,0.50
2023-02-06T01:09:53.692Z,1.50
2023-02-06T01:15:33.362Z,0.60
2023-02-06T01:21:05.586Z,0.60
2023-02-06T01:26:35.178Z,0.50
2023-02-06T01:34:50.130Z,0.30
2023-02-06T01:37:16.956Z,1.30
2023-02-06T01:39:45.063Z,0.40
2023-02-06T01:45:26.957Z,0.40
2023-02-06T01:48:07.879Z,0.30
2023-02-06T01:50:37.831Z,0.30
2023-02-06T01:53:06.562Z,0.20
2023-02-06T01:55:36.591Z,0.20
2023-02-06T02:00:39.056Z,0.00
2023-02-06T02:03:06.092Z,1.20
2023-02-06T02:05:34.112Z,0.60
2023-02-06T02:11:21.439Z,0.20
2023-02-06T02:13:51.098Z,0.20
2023-02-06T02:16:45.715Z,1.40
2023-02-06T02:19:18.357Z,0.40
2023-02-06T02:22:28.380Z,0.30
2023-02-06T02:30:28.598Z,0.30
2023-02-06T02:33:26.449Z,0.40
2023-02-06T02:39:39.929Z,0.30
2023-02-06T02:42:26.824Z,0.30
2023-02-06T02:51:26.547Z,0.20
2023-02-06T02:57:15.826Z,0.30
2023-02-06T02:59:46.772Z,0.30
2023-02-06T03:02:23.985Z,1.90
2023-02-06T03:04:57.873Z,0.40
2023-02-06T03:07:54.960Z,0.10
2023-02-06T03:10:33.854Z,-0.10
2023-02-06T03:13:09.828Z,0.00
2023-02-06T03:15:56.579Z,-0.20
2023-02-06T03:18:31.122Z,-0.10
2023-02-06T03:21:00.206Z,-0.20
2023-02-06T03:26:20.588Z,-0.30
2023-02-06T03:32:11.278Z,-0.20
2023-02-06T03:35:05.057Z,-0.20
2023-02-06T03:38:05.567Z,-0.30
2023-02-06T03:40:32.794Z,-0.30
2023-02-06T03:45:50.385Z,-0.40
2023-02-06T03:48:27.653Z,-0.50
2023-02-06T03:50:59.263Z,-0.40
2023-02-06T03:53:26.972Z,-0.10
2023-02-06T03:55:58.984Z,-0.30
2023-02-06T03:58:26.577Z,-0.10
2023-02-06T04:00:53.854Z,-0.40
2023-02-06T04:03:21.542Z,0.90
2023-02-06T04:08:23.698Z,-0.40
2023-02-06T04:13:45.708Z,-0.30
2023-02-06T04:16:12.561Z,-0.20
2023-02-06T04:18:39.433Z,0.00
2023-02-06T04:21:07.587Z,0.10
2023-02-06T04:23:35.180Z,0.20
2023-02-06T04:28:47.778Z,0.30
2023-02-06T04:31:14.736Z,0.10
2023-02-06T04:33:44.292Z,0.00
2023-02-06T04:36:11.095Z,0.10
2023-02-06T04:38:37.866Z,0.40
2023-02-06T04:41:06.650Z,0.00
2023-02-06T04:46:08.789Z,0.30
2023-02-06T04:48:46.224Z,1.80
2023-02-06T04:51:13.149Z,2.30
2023-02-06T04:56:29.243Z,0.40
2023-02-06T05:05:39.123Z,0.30
2023-02-06T05:08:05.944Z,0.10
2023-02-06T05:10:52.851Z,0.10
2023-02-06T05:13:26.283Z,0.10
2023-02-06T05:15:53.249Z,0.10
2023-02-06T05:18:20.211Z,0.20
2023-02-06T05:20:47.423Z,0.10
2023-02-06T05:23:14.243Z,0.10
2023-02-06T05:25:42.317Z,1.90
2023-02-06T05:30:52.898Z,0.40
2023-02-06T05:36:00.797Z,0.40
2023-02-06T05:44:06.106Z,0.20
2023-02-06T05:46:33.285Z,-0.10
2023-02-06T05:49:01.144Z,1.20
2023-02-06T05:51:28.462Z,0.00
2023-02-06T05:53:55.273Z,-0.10
2023-02-06T05:56:22.552Z,0.20
2023-02-06T05:58:49.394Z,-0.20
2023-02-06T06:01:16.366Z,0.20
2023-02-06T06:03:43.285Z,0.40
2023-02-06T06:06:11.071Z,-0.20
2023-02-06T06:08:37.994Z,0.00
2023-02-06T06:11:04.989Z,-0.30
2023-02-06T06:13:31.763Z,-0.30
2023-02-06T06:15:58.690Z,0.10
2023-02-06T06:18:27.011Z,0.30
2023-02-06T06:20:54.243Z,0.00
2023-02-06T06:23:21.414Z,0.50
2023-02-06T06:25:49.200Z,0.00
2023-02-06T06:28:16.564Z,-0.20
2023-02-06T06:30:43.937Z,-0.20
2023-02-06T06:33:10.961Z,-0.20
2023-02-06T06:35:38.104Z,0.60
2023-02-06T06:41:18.268Z,-0.20
2023-02-06T06:43:45.119Z,0.10
2023-02-06T06:48:47.297Z,0.00
2023-02-06T06:51:14.230Z,0.10
2023-02-06T06:53:41.091Z,0.10
2023-02-06T07:04:23.958Z,0.50
2023-02-06T07:06:50.833Z,0.70
2023-02-06T07:09:17.733Z,0.60
2023-02-06T07:11:44.660Z,0.70
2023-02-06T07:14:11.968Z,0.90
2023-02-06T07:16:38.784Z,1.00
2023-02-06T07:22:03.295Z,1.30
2023-02-06T07:24:30.540Z,1.60
2023-02-06T07:33:44.902Z,2.10
2023-02-06T07:39:01.559Z,2.40
2023-02-06T07:41:32.256Z,2.40
2023-02-06T07:44:32.613Z,2.50
2023-02-06T07:46:59.361Z,2.20
2023-02-06T07:49:26.324Z,2.70
2023-02-06T07:51:53.558Z,2.50
2023-02-06T07:54:20.963Z,2.70
2023-02-06T07:56:55.596Z,2.70
2023-02-06T08:02:46.141Z,2.70
2023-02-06T08:08:02.342Z,2.80
2023-02-06T08:13:04.993Z,3.00
2023-02-06T08:21:09.814Z,3.30
2023-02-06T08:23:36.946Z,3.30
2023-02-06T08:31:46.945Z,3.70
2023-02-06T08:34:15.183Z,3.70
2023-02-06T08:36:43.605Z,3.60
2023-02-06T08:39:13.929Z,3.60
2023-02-06T08:41:42.444Z,3.80
2023-02-06T08:44:13.256Z,3.70
2023-02-06T08:46:41.059Z,2.40
2023-02-06T08:49:14.114Z,3.70
2023-02-06T08:51:41.730Z,3.70
2023-02-06T08:54:11.708Z,3.60
2023-02-06T08:56:39.286Z,3.80
2023-02-06T08:59:07.496Z,3.70
2023-02-06T09:01:36.530Z,3.60
2023-02-06T09:04:09.369Z,3.80
2023-02-06T09:06:38.135Z,4.00
2023-02-06T09:09:06.286Z,4.20
2023-02-06T09:11:33.735Z,4.40
2023-02-06T09:14:03.346Z,4.60
2023-02-06T09:16:33.295Z,4.90
2023-02-06T09:19:01.836Z,5.30
2023-02-06T09:21:31.130Z,5.60
2023-02-06T09:24:04.459Z,5.60
2023-02-06T09:26:40.629Z,5.40
2023-02-06T09:29:12.967Z,5.50
2023-02-06T09:31:46.028Z,5.60
2023-02-06T09:37:42.868Z,5.50
2023-02-06T09:40:19.965Z,5.80
2023-02-06T09:42:48.066Z,6.50
2023-02-06T09:45:19.084Z,5.40
2023-02-06T09:47:51.374Z,6.30
2023-02-06T09:50:42.634Z,5.70
2023-02-06T09:53:24.637Z,7.50
2023-02-06T09:56:27.036Z,7.80
2023-02-06T09:59:07.979Z,7.20
2023-02-06T10:01:41.839Z,7.40
2023-02-06T10:04:14.525Z,7.10
2023-02-06T10:07:04.496Z,6.90
2023-02-06T10:10:04.376Z,5.20
2023-02-06T10:12:46.020Z,6.70
2023-02-06T10:15:23.077Z,6.70
2023-02-06T10:18:10.644Z,6.40
2023-02-06T10:23:55.686Z,6.00
2023-02-06T11:37:02.255Z,12.30
2023-02-06T11:39:38.210Z,13.80
2023-02-06T11:42:25.885Z,13.10
2023-02-06T11:53:17.242Z,11.50
2023-02-06T11:56:02.823Z,10.80
2023-02-06T11:58:30.590Z,10.10
2023-02-06T12:01:04.783Z,9.50
2023-02-06T12:06:31.356Z,8.90
2023-02-06T12:11:56.837Z,7.50
2023-02-06T12:20:28.812Z,7.20
2023-02-06T12:25:49.408Z,6.80
2023-02-06T12:29:00.318Z,6.70
2023-02-06T12:34:53.580Z,6.50
2023-02-06T12:37:35.892Z,6.60
2023-02-06T12:49:18.849Z,4.90
2023-02-06T12:52:02.791Z,6.90
2023-02-06T12:55:12.140Z,7.00
2023-02-06T13:00:53.375Z,6.50
2023-02-06T13:03:42.251Z,6.90
2023-02-06T13:14:29.601Z,6.70
2023-02-06T13:20:13.279Z,6.70
2023-02-06T13:22:42.125Z,6.50
2023-02-06T13:25:32.085Z,6.30
2023-02-06T13:28:00.464Z,6.20
2023-02-06T13:30:30.337Z,7.00
2023-02-06T13:33:22.332Z,8.00
2023-02-06T13:35:56.013Z,8.10
2023-02-06T13:41:14.613Z,7.40
2023-02-06T13:44:07.886Z,7.20
2023-02-06T13:47:17.019Z,7.00
2023-02-06T13:49:54.491Z,6.60
2023-02-06T14:06:20.524Z,5.80
2023-02-06T14:08:52.825Z,5.20
2023-02-06T14:11:51.104Z,5.20
2023-02-06T14:20:34.072Z,4.30
2023-02-06T14:26:02.058Z,5.40
2023-02-06T14:31:46.646Z,5.20
2023-02-06T14:34:30.544Z,5.00
2023-02-06T14:37:03.243Z,5.10
2023-02-06T14:40:16.456Z,5.30
2023-02-06T14:42:46.073Z,5.50
2023-02-06T14:45:42.209Z,5.80
2023-02-06T15:01:54.894Z,7.40
2023-02-06T15:04:27.991Z,7.70
2023-02-06T15:06:56.300Z,7.70
2023-02-06T15:09:35.118Z,7.90
2023-02-06T15:12:16.797Z,8.00
2023-02-06T15:14:53.155Z,8.00
2023-02-06T15:17:22.225Z,7.60
2023-02-06T15:19:49.892Z,7.30
2023-02-06T15:22:29.212Z,7.00
2023-02-06T15:25:05.646Z,6.80
2023-02-06T15:27:37.402Z,6.60
2023-02-06T15:33:00.604Z,6.00
2023-02-06T15:35:36.501Z,4.60
2023-02-06T15:38:09.997Z,5.60
2023-02-06T15:40:39.762Z,5.30
2023-02-06T15:43:09.995Z,5.10
2023-02-06T15:45:39.098Z,3.50
2023-02-06T15:48:19.403Z,4.60
2023-02-06T15:51:18.403Z,4.60
2023-02-06T15:53:48.101Z,4.40
2023-02-06T15:56:51.345Z,4.20
2023-02-06T16:02:08.041Z,4.00
2023-02-06T16:07:38.179Z,3.70
2023-02-06T16:10:38.704Z,3.60
2023-02-06T16:13:21.157Z,2.20
2023-02-06T16:16:25.151Z,1.90
2023-02-06T16:18:54.562Z,3.40
2023-02-06T16:21:31.712Z,3.40
2023-02-06T16:24:07.401Z,3.30
2023-02-06T16:26:47.259Z,3.40
2023-02-06T16:32:23.402Z,3.30
2023-02-06T16:34:51.195Z,3.20
2023-02-06T16:37:27.574Z,3.20
2023-02-06T16:45:27.219Z,2.70
2023-02-06T16:50:40.855Z,2.80
2023-02-06T16:56:21.656Z,2.80
2023-02-06T16:58:52.417Z,2.60
2023-02-06T17:01:54.045Z,2.70
2023-02-06T17:04:20.905Z,2.90
2023-02-06T17:06:54.990Z,3.10
2023-02-06T17:09:22.053Z,1.80
2023-02-06T17:11:49.429Z,2.80
2023-02-06T17:14:26.946Z,2.90
2023-02-06T17:16:55.683Z,1.20
2023-02-06T17:22:04.319Z,2.90
2023-02-06T17:27:55.606Z,2.90
2023-02-06T17:30:23.798Z,3.00
2023-02-06T17:32:51.164Z,3.10
2023-02-06T17:40:45.774Z,3.00
2023-02-06T17:43:12.660Z,2.80
2023-02-06T17:48:24.855Z,2.90
2023-02-06T17:53:27.070Z,3.00
2023-02-06T17:55:55.108Z,2.90
2023-02-06T17:58:44.523Z,3.10
2023-02-06T18:03:57.827Z,3.00
2023-02-06T18:09:00.287Z,3.10
2023-02-06T18:11:27.851Z,3.00
2023-02-06T18:13:55.885Z,3.10
2023-02-06T18:16:26.082Z,3.00
2023-02-06T18:18:56.698Z,3.00
2023-02-06T18:21:29.442Z,2.30
2023-02-06T18:23:57.240Z,2.00
2023-02-06T18:26:24.444Z,3.00
2023-02-06T18:37:09.537Z,2.80
2023-02-06T18:39:39.542Z,2.80
2023-02-06T18:42:25.464Z,1.20
2023-02-06T18:47:42.562Z,2.80
2023-02-06T18:50:11.173Z,1.70
2023-02-06T18:52:39.404Z,2.70
2023-02-06T18:55:08.269Z,2.80
2023-02-06T18:57:35.691Z,2.80
2023-02-06T19:00:08.140Z,2.80
2023-02-06T19:02:34.898Z,2.70
2023-02-06T19:05:02.071Z,2.70
2023-02-06T19:07:29.039Z,2.70
2023-02-06T19:10:00.265Z,2.80
2023-02-06T19:12:29.039Z,2.80
2023-02-06T19:14:57.089Z,3.20
2023-02-06T19:17:25.117Z,2.60
2023-02-06T19:19:52.614Z,2.60
2023-02-06T19:27:40.484Z,2.40
2023-02-06T19:30:08.155Z,2.60
2023-02-06T19:32:35.246Z,2.50
2023-02-06T19:37:40.717Z,2.30
2023-02-06T19:40:09.525Z,1.60
2023-02-06T19:42:38.407Z,0.70
2023-02-06T19:52:37.368Z,2.40
2023-02-06T19:55:04.651Z,2.30
2023-02-06T19:57:31.710Z,2.20
2023-02-06T19:59:58.566Z,2.20
2023-02-06T20:05:04.042Z,2.40
2023-02-06T20:07:51.549Z,0.80
2023-02-06T20:10:19.202Z,2.30
2023-02-06T20:12:46.917Z,1.00
2023-02-06T20:15:14.194Z,2.30
2023-02-06T20:17:41.899Z,2.50
2023-02-06T20:20:09.562Z,2.40
2023-02-06T20:22:36.480Z,2.40
2023-02-06T20:27:51.640Z,2.40
2023-02-06T20:30:19.749Z,1.20
2023-02-06T20:38:34.444Z,2.30
2023-02-06T20:41:06.129Z,2.30
2023-02-06T20:43:33.853Z,0.40
2023-02-06T20:46:01.117Z,0.90
2023-02-06T20:51:05.717Z,2.00
2023-02-06T20:53:32.788Z,2.10
2023-02-06T20:56:00.012Z,2.10
2023-02-06T20:58:30.594Z,2.20
2023-02-06T21:03:32.812Z,2.00
2023-02-06T21:06:03.665Z,1.90
2023-02-06T21:08:30.839Z,1.90
2023-02-06T21:13:34.189Z,2.00
2023-02-06T21:16:01.739Z,2.00
2023-02-06T21:21:09.349Z,1.90
2023-02-06T21:26:13.638Z,1.70
2023-02-06T21:28:41.268Z,1.70
2023-02-06T21:31:12.982Z,1.70
2023-02-06T21:33:40.188Z,2.10
2023-02-06T21:36:07.781Z,2.00
2023-02-06T21:38:38.382Z,1.50
2023-02-06T21:41:13.694Z,1.60
2023-02-06T21:43:40.541Z,1.80
2023-02-06T21:48:50.580Z,1.40
2023-02-06T21:51:17.793Z,1.40
2023-02-06T21:53:45.558Z,1.30
2023-02-06T21:56:18.488Z,1.30
2023-02-06T22:01:26.435Z,1.30
2023-02-06T22:06:37.148Z,2.20
2023-02-06T22:12:14.773Z,1.20
2023-02-06T22:14:42.096Z,-0.30
2023-02-06T22:17:09.320Z,1.90
2023-02-06T22:19:37.767Z,1.60
2023-02-06T22:22:06.590Z,1.20
2023-02-06T22:24:33.381Z,1.20
2023-02-06T22:27:00.227Z,1.10
2023-02-06T22:29:27.040Z,1.00
2023-02-06T22:31:54.258Z,1.40
2023-02-06T22:34:21.525Z,0.90
2023-02-06T22:36:50.588Z,0.80
2023-02-06T22:39:17.972Z,0.80
2023-02-06T22:41:45.803Z,0.80
2023-02-06T22:44:16.797Z,1.00
2023-02-06T22:46:52.417Z,0.70
2023-02-06T22:49:21.036Z,0.20
2023-02-06T22:51:50.670Z,1.60
2023-02-06T22:54:20.802Z,0.80
2023-02-06T22:56:48.606Z,-0.60
2023-02-06T22:59:23.842Z,-0.80
2023-02-06T23:04:26.021Z,0.50
2023-02-06T23:06:53.270Z,0.60
2023-02-06T23:09:31.037Z,0.80
2023-02-06T23:11:58.916Z,0.60
2023-02-06T23:14:27.585Z,1.60
2023-02-06T23:19:40.425Z,0.70
2023-02-06T23:30:32.104Z,0.50
2023-02-06T23:38:29.575Z,0.40
2023-02-06T23:40:56.481Z,0.60
2023-02-06T23:43:23.298Z,0.40
2023-02-06T23:45:50.252Z,0.40
2023-02-06T23:48:17.057Z,0.40
2023-02-06T23:50:43.864Z,0.40
2023-02-06T23:53:16.585Z,0.60
2023-02-06T23:55:43.817Z,0.30
2023-02-06T23:58:12.279Z,0.50
